createdAt,value
2023-03-10T00:00:46.319Z,19.30
2023-03-10T00:01:46.234Z,19.60
2023-03-10T00:02:46.232Z,18.70
2023-03-10T00:03:46.217Z,19.00
2023-03-10T00:04:46.274Z,18.10
2023-03-10T00:05:46.278Z,18.70
2023-03-10T00:06:46.222Z,18.00
2023-03-10T00:07:46.197Z,17.80
2023-03-10T00:08:46.245Z,17.40
2023-03-10T00:09:46.159Z,17.50
2023-03-10T00:10:46.173Z,17.70
2023-03-10T00:11:46.160Z,17.40
2023-03-10T00:12:46.126Z,17.60
2023-03-10T00:13:46.120Z,18.30
2023-03-10T00:14:46.091Z,18.00
2023-03-10T00:15:46.164Z,17.60
2023-03-10T00:16:46.127Z,17.70
2023-03-10T00:17:46.104Z,18.30
2023-03-10T00:18:46.118Z,17.10
2023-03-10T00:19:46.082Z,17.80
2023-03-10T00:20:46.089Z,15.50
2023-03-10T00:21:46.095Z,16.30
2023-03-10T00:22:46.099Z,14.10
2023-03-10T00:23:46.028Z,15.10
2023-03-10T00:24:46.036Z,15.30
2023-03-10T00:25:46.012Z,15.70
2023-03-10T00:26:45.961Z,15.10
2023-03-10T00:27:45.986Z,16.00
2023-03-10T00:28:45.966Z,14.60
2023-03-10T00:29:45.977Z,14.50
2023-03-10T00:30:46.046Z,13.80
2023-03-10T00:31:45.918Z,13.20
2023-03-10T00:32:45.915Z,14.60
2023-03-10T00:33:45.905Z,13.50
2023-03-10T00:34:45.910Z,13.50
2023-03-10T00:35:45.963Z,13.20
2023-03-10T00:36:45.856Z,12.60
2023-03-10T00:37:45.853Z,13.80
2023-03-10T00:38:45.841Z,11.20
2023-03-10T00:39:45.824Z,11.90
2023-03-10T00:40:45.910Z,9.00
2023-03-10T00:41:45.824Z,10.90
2023-03-10T00:42:45.829Z,9.20
2023-03-10T00:43:45.795Z,10.30
2023-03-10T00:44:45.780Z,12.10
2023-03-10T00:45:45.784Z,8.90
2023-03-10T00:46:45.900Z,7.40
2023-03-10T00:47:45.764Z,7.70
2023-03-10T00:48:45.738Z,7.90
2023-03-10T00:49:45.728Z,7.20
2023-03-10T00:50:45.752Z,7.70
2023-03-10T00:51:45.704Z,8.60
2023-03-10T00:52:45.716Z,8.20
2023-03-10T00:53:45.699Z,8.30
2023-03-10T00:54:45.671Z,7.40
2023-03-10T00:55:45.667Z,6.70
2023-03-10T00:56:45.646Z,8.20
2023-03-10T00:57:45.666Z,6.20
2023-03-10T00:58:45.659Z,8.30
2023-03-10T00:59:50.370Z,5.20
2023-03-10T01:00:46.625Z,6.10
2023-03-10T01:01:45.644Z,6.90
2023-03-10T01:02:45.604Z,7.90
2023-03-10T01:03:45.591Z,8.60
2023-03-10T01:04:45.671Z,6.20
2023-03-10T01:05:45.553Z,7.40
2023-03-10T01:06:45.549Z,6.00
2023-03-10T01:07:45.544Z,6.30
2023-03-10T01:08:45.528Z,5.40
2023-03-10T01:09:45.516Z,5.50
2023-03-10T01:10:45.528Z,4.70
2023-03-10T01:11:45.536Z,5.80
2023-03-10T01:12:45.484Z,6.90
2023-03-10T01:13:45.498Z,6.30
2023-03-10T01:14:45.452Z,6.60
2023-03-10T01:15:45.477Z,6.40
2023-03-10T01:16:45.432Z,8.70
2023-03-10T01:17:45.433Z,7.50
2023-03-10T01:18:45.427Z,7.60
2023-03-10T01:19:45.435Z,6.50
2023-03-10T01:20:45.416Z,6.50
2023-03-10T01:21:45.387Z,9.90
2023-03-10T01:22:45.384Z,7.60
2023-03-10T01:23:45.375Z,4.80
2023-03-10T01:24:45.407Z,6.90
2023-03-10T01:25:45.376Z,7.40
2023-03-10T01:26:45.370Z,5.20
2023-03-10T01:27:45.320Z,6.50
2023-03-10T01:28:45.332Z,5.90
2023-03-10T01:29:45.296Z,5.90
2023-03-10T01:30:45.362Z,4.20
2023-03-10T01:31:45.349Z,5.40
2023-03-10T01:32:45.333Z,4.20
2023-03-10T01:33:45.278Z,6.30
2023-03-10T01:34:45.248Z,6.50
2023-03-10T01:35:45.282Z,4.00
2023-03-10T01:36:45.254Z,6.00
2023-03-10T01:37:45.212Z,6.00
2023-03-10T01:38:45.200Z,5.60
2023-03-10T01:39:45.290Z,5.90
2023-03-10T01:40:45.170Z,4.60
2023-03-10T01:41:45.158Z,6.50
2023-03-10T01:42:45.161Z,4.20
2023-03-10T01:43:45.160Z,5.40
2023-03-10T01:44:45.117Z,3.90
2023-03-10T01:45:45.117Z,4.20
2023-03-10T01:46:45.197Z,5.10
2023-03-10T01:47:45.083Z,7.00
2023-03-10T01:48:45.138Z,3.70
2023-03-10T01:49:45.103Z,4.90
2023-03-10T01:50:45.079Z,5.50
2023-03-10T01:51:45.035Z,6.20
2023-03-10T01:52:45.041Z,5.30
2023-03-10T01:53:45.038Z,6.70
2023-03-10T01:54:45.039Z,6.00
2023-03-10T01:55:45.005Z,5.80
2023-03-10T01:56:45.008Z,6.10
2023-03-10T01:57:45.006Z,5.20
2023-03-10T01:58:44.990Z,3.60
2023-03-10T01:59:44.965Z,6.30
2023-03-10T02:00:45.026Z,5.40
2023-03-10T02:01:45.051Z,3.90
2023-03-10T02:02:44.915Z,6.30
2023-03-10T02:03:44.924Z,6.20
2023-03-10T02:04:44.924Z,5.50
2023-03-10T02:05:44.897Z,4.10
2023-03-10T02:06:44.916Z,4.00
2023-03-10T02:07:44.868Z,5.20
2023-03-10T02:08:44.893Z,4.70
2023-03-10T02:09:44.902Z,4.50
2023-03-10T02:10:44.835Z,6.80
2023-03-10T02:11:44.824Z,5.30
2023-03-10T02:12:44.823Z,5.10
2023-03-10T02:13:44.826Z,8.10
2023-03-10T02:14:44.829Z,5.20
2023-03-10T02:15:44.795Z,5.30
2023-03-10T02:16:44.902Z,7.00
2023-03-10T02:17:44.868Z,5.20
2023-03-10T02:18:44.749Z,5.00
2023-03-10T02:19:44.766Z,5.70
2023-03-10T02:20:44.749Z,6.20
2023-03-10T02:21:44.737Z,5.10
2023-03-10T02:22:44.724Z,5.00
2023-03-10T02:23:51.264Z,5.60
2023-03-10T02:24:45.723Z,5.40
2023-03-10T02:25:44.695Z,4.70
2023-03-10T02:26:44.660Z,4.20
2023-03-10T02:27:44.656Z,6.00
2023-03-10T02:28:44.638Z,6.30
2023-03-10T02:29:57.928Z,4.40
2023-03-10T02:30:45.628Z,4.80
2023-03-10T02:31:44.704Z,4.80
2023-03-10T02:32:44.679Z,4.60
2023-03-10T02:33:44.621Z,6.00
2023-03-10T02:34:44.605Z,5.00
2023-03-10T02:35:44.586Z,4.90
2023-03-10T02:36:44.566Z,5.20
2023-03-10T02:37:44.562Z,4.60
2023-03-10T02:38:44.532Z,5.20
2023-03-10T02:39:44.588Z,5.10
2023-03-10T02:40:44.585Z,3.10
2023-03-10T02:41:45.593Z,5.30
2023-03-10T02:42:44.493Z,4.60
2023-03-10T02:43:44.487Z,4.50
2023-03-10T02:44:44.488Z,5.60
2023-03-10T02:45:44.493Z,2.70
2023-03-10T02:46:44.476Z,4.90
2023-03-10T02:47:44.450Z,5.20
2023-03-10T02:48:44.430Z,5.70
2023-03-10T02:49:44.411Z,4.90
2023-03-10T02:50:44.424Z,4.30
2023-03-10T02:51:44.424Z,4.60
2023-03-10T02:52:44.385Z,5.50
2023-03-10T02:53:44.405Z,4.20
2023-03-10T02:54:44.369Z,3.40
2023-03-10T02:55:44.380Z,2.80
2023-03-10T02:56:44.360Z,4.20
2023-03-10T02:57:44.354Z,5.70
2023-03-10T02:58:44.322Z,3.30
2023-03-10T02:59:44.327Z,5.10
2023-03-10T03:00:44.336Z,4.60
2023-03-10T03:01:44.358Z,3.70
2023-03-10T03:02:44.290Z,4.60
2023-03-10T03:03:44.309Z,5.20
2023-03-10T03:04:44.248Z,4.40
2023-03-10T03:05:44.267Z,4.50
2023-03-10T03:06:44.225Z,4.20
2023-03-10T03:07:44.213Z,2.70
2023-03-10T03:08:44.220Z,5.80
2023-03-10T03:09:44.212Z,3.80
2023-03-10T03:10:44.206Z,2.90
2023-03-10T03:11:44.194Z,3.40
2023-03-10T03:12:44.172Z,4.10
2023-03-10T03:13:44.195Z,3.50
2023-03-10T03:14:44.156Z,5.40
2023-03-10T03:15:44.162Z,3.50
2023-03-10T03:16:44.174Z,4.40
2023-03-10T03:17:44.099Z,5.20
2023-03-10T03:18:44.106Z,4.40
2023-03-10T03:19:44.097Z,5.80
2023-03-10T03:20:44.099Z,4.10
2023-03-10T03:21:44.070Z,3.60
2023-03-10T03:22:44.059Z,3.30
2023-03-10T03:23:44.060Z,4.70
2023-03-10T03:24:44.029Z,3.90
2023-03-10T03:25:44.061Z,4.30
2023-03-10T03:26:44.018Z,2.50
2023-03-10T03:27:43.993Z,4.70
2023-03-10T03:28:43.995Z,2.00
2023-03-10T03:29:43.976Z,3.70
2023-03-10T03:30:43.969Z,3.20
2023-03-10T03:31:44.135Z,4.10
2023-03-10T03:32:43.983Z,4.50
2023-03-10T03:33:43.957Z,3.50
2023-03-10T03:34:43.919Z,6.80
2023-03-10T03:35:44.045Z,5.00
2023-03-10T03:36:43.916Z,4.90
2023-03-10T03:37:43.947Z,4.00
2023-03-10T03:38:43.887Z,2.90
2023-03-10T03:39:43.934Z,2.30
2023-03-10T03:40:43.907Z,3.20
2023-03-10T03:41:43.863Z,4.00
2023-03-10T03:42:43.843Z,3.70
2023-03-10T03:43:43.826Z,2.90
2023-03-10T03:44:43.809Z,1.80
2023-03-10T03:45:43.914Z,3.40
2023-03-10T03:46:44.152Z,3.50
2023-03-10T03:47:43.794Z,2.80
2023-03-10T03:48:43.766Z,2.50
2023-03-10T03:49:44.662Z,2.50
2023-03-10T03:50:43.750Z,2.20
2023-03-10T03:51:43.756Z,2.10
2023-03-10T03:52:43.799Z,3.90
2023-03-10T03:53:43.723Z,3.30
2023-03-10T03:54:43.697Z,2.70
2023-03-10T03:55:43.706Z,3.70
2023-03-10T03:56:43.809Z,3.20
2023-03-10T03:57:43.708Z,3.50
2023-03-10T03:58:43.676Z,3.70
2023-03-10T03:59:43.682Z,2.80
2023-03-10T04:00:43.642Z,3.30
2023-03-10T04:01:43.705Z,2.60
2023-03-10T04:02:43.683Z,3.10
2023-03-10T04:03:43.695Z,3.60
2023-03-10T04:04:43.608Z,1.60
2023-03-10T04:05:43.588Z,2.50
2023-03-10T04:06:43.620Z,1.80
2023-03-10T04:07:43.576Z,3.60
2023-03-10T04:08:43.640Z,1.20
2023-03-10T04:09:43.558Z,2.20
2023-03-10T04:10:43.555Z,2.80
2023-03-10T04:11:43.554Z,2.30
2023-03-10T04:12:43.539Z,2.20
2023-03-10T04:13:43.489Z,4.00
2023-03-10T04:14:43.491Z,2.80
2023-03-10T04:15:43.547Z,2.60
2023-03-10T04:16:43.485Z,2.30
2023-03-10T04:17:43.458Z,3.20
2023-03-10T04:18:43.437Z,2.40
2023-03-10T04:19:45.893Z,2.20
2023-03-10T04:20:43.424Z,2.50
2023-03-10T04:21:43.446Z,2.20
2023-03-10T04:22:43.414Z,3.10
2023-03-10T04:23:43.396Z,1.90
2023-03-10T04:24:43.453Z,2.40
2023-03-10T04:25:43.366Z,3.40
2023-03-10T04:26:43.370Z,2.90
2023-03-10T04:27:43.338Z,2.40
2023-03-10T04:28:43.346Z,3.60
2023-03-10T04:29:43.369Z,2.40
2023-03-10T04:30:43.320Z,3.40
2023-03-10T04:31:46.544Z,1.10
2023-03-10T04:32:44.632Z,2.00
2023-03-10T04:33:43.317Z,1.80
2023-03-10T04:34:43.272Z,1.80
2023-03-10T04:35:43.269Z,2.70
2023-03-10T04:36:43.261Z,2.40
2023-03-10T04:37:43.249Z,1.90
2023-03-10T04:38:43.228Z,1.60
2023-03-10T04:39:43.227Z,2.10
2023-03-10T04:40:43.239Z,2.60
2023-03-10T04:41:43.188Z,2.10
2023-03-10T04:42:43.215Z,3.30
2023-03-10T04:43:45.553Z,2.90
2023-03-10T04:44:43.162Z,2.90
2023-03-10T04:45:43.182Z,2.50
2023-03-10T04:46:43.384Z,1.10
2023-03-10T04:47:43.105Z,2.50
2023-03-10T04:48:43.118Z,2.50
2023-03-10T04:49:43.115Z,3.00
2023-03-10T04:50:43.086Z,2.40
2023-03-10T04:51:43.193Z,2.20
2023-03-10T04:52:43.169Z,2.60
2023-03-10T04:53:43.153Z,1.90
2023-03-10T04:54:43.276Z,1.70
2023-03-10T04:55:43.063Z,1.20
2023-03-10T04:56:43.085Z,1.60
2023-03-10T04:57:43.007Z,1.00
2023-03-10T04:58:42.997Z,1.40
2023-03-10T04:59:42.970Z,0.80
2023-03-10T05:00:56.478Z,2.30
2023-03-10T05:01:44.027Z,2.30
2023-03-10T05:02:42.946Z,1.70
2023-03-10T05:03:42.933Z,1.10
2023-03-10T05:04:43.035Z,2.00
2023-03-10T05:05:42.924Z,1.00
2023-03-10T05:06:42.907Z,2.20
2023-03-10T05:07:42.901Z,1.70
2023-03-10T05:08:42.872Z,1.40
2023-03-10T05:09:42.905Z,1.80
2023-03-10T05:10:42.854Z,2.20
2023-03-10T05:11:43.035Z,1.30
2023-03-10T05:12:42.902Z,1.70
2023-03-10T05:13:42.827Z,1.10
2023-03-10T05:14:42.850Z,1.80
2023-03-10T05:15:42.909Z,1.20
2023-03-10T05:16:42.792Z,1.00
2023-03-10T05:17:42.804Z,1.90
2023-03-10T05:18:42.791Z,1.20
2023-03-10T05:19:42.769Z,1.40
2023-03-10T05:20:42.744Z,2.20
2023-03-10T05:21:42.726Z,1.50
2023-03-10T05:22:42.756Z,0.90
2023-03-10T05:23:42.748Z,1.10
2023-03-10T05:24:42.691Z,2.50
2023-03-10T05:25:42.705Z,2.00
2023-03-10T05:26:42.680Z,2.00
2023-03-10T05:27:42.708Z,1.10
2023-03-10T05:28:42.690Z,2.70
2023-03-10T05:29:42.643Z,1.00
2023-03-10T05:30:42.715Z,0.70
2023-03-10T05:31:42.664Z,1.00
2023-03-10T05:32:42.675Z,1.20
2023-03-10T05:33:42.646Z,1.10
2023-03-10T05:34:42.609Z,1.90
2023-03-10T05:35:42.665Z,0.80
2023-03-10T05:36:42.560Z,1.10
2023-03-10T05:37:42.604Z,1.60
2023-03-10T05:38:42.552Z,2.10
2023-03-10T05:39:42.562Z,1.20
2023-03-10T05:40:42.544Z,1.20
2023-03-10T05:41:42.543Z,0.70
2023-03-10T05:42:42.514Z,1.60
2023-03-10T05:43:42.550Z,2.30
2023-03-10T05:44:42.480Z,1.70
2023-03-10T05:45:42.486Z,1.60
2023-03-10T05:46:42.569Z,0.50
2023-03-10T05:47:42.466Z,0.60
2023-03-10T05:48:42.433Z,2.10
2023-03-10T05:49:42.478Z,1.60
2023-03-10T05:50:42.409Z,0.90
2023-03-10T05:51:42.424Z,1.50
2023-03-10T05:52:42.398Z,1.00
2023-03-10T05:53:42.392Z,1.30
2023-03-10T05:54:42.422Z,0.90
2023-03-10T05:55:42.385Z,0.90
2023-03-10T05:56:42.375Z,2.20
2023-03-10T05:57:42.345Z,1.10
2023-03-10T05:58:42.321Z,1.20
2023-03-10T05:59:42.348Z,1.20
2023-03-10T06:00:42.322Z,0.70
2023-03-10T06:01:42.286Z,1.40
2023-03-10T06:02:42.327Z,1.00
2023-03-10T06:03:42.416Z,0.70
2023-03-10T06:04:42.251Z,0.80
2023-03-10T06:05:42.252Z,0.80
2023-03-10T06:06:42.244Z,0.80
2023-03-10T06:07:42.233Z,1.00
2023-03-10T06:08:42.260Z,1.30
2023-03-10T06:09:42.226Z,0.80
2023-03-10T06:10:42.202Z,0.70
2023-03-10T06:11:42.200Z,0.80
2023-03-10T06:12:42.186Z,0.70
2023-03-10T06:13:42.195Z,1.40
2023-03-10T06:14:42.136Z,0.70
2023-03-10T06:15:42.151Z,2.10
2023-03-10T06:16:42.207Z,0.60
2023-03-10T06:17:42.132Z,1.00
2023-03-10T06:18:42.089Z,0.60
2023-03-10T06:19:42.247Z,0.40
2023-03-10T06:20:42.099Z,0.60
2023-03-10T06:21:42.113Z,0.50
2023-03-10T06:22:42.157Z,1.00
2023-03-10T06:23:42.091Z,0.50
2023-03-10T06:24:42.114Z,1.30
2023-03-10T06:25:42.051Z,0.70
2023-03-10T06:26:42.051Z,0.90
2023-03-10T06:27:42.046Z,0.90
2023-03-10T06:28:41.996Z,0.50
2023-03-10T06:29:42.002Z,1.30
2023-03-10T06:30:41.981Z,0.60
2023-03-10T06:31:42.036Z,1.20
2023-03-10T06:32:42.000Z,1.50
2023-03-10T06:33:41.951Z,0.30
2023-03-10T06:34:42.002Z,0.60
2023-03-10T06:35:41.949Z,0.80
2023-03-10T06:36:41.905Z,1.10
2023-03-10T06:37:41.897Z,0.60
2023-03-10T06:38:41.895Z,0.60
2023-03-10T06:39:41.878Z,1.10
2023-03-10T06:40:41.864Z,1.00
2023-03-10T06:41:41.864Z,0.60
2023-03-10T06:42:41.841Z,0.40
2023-03-10T06:43:41.823Z,0.50
2023-03-10T06:44:41.839Z,0.20
2023-03-10T06:45:41.861Z,0.40
2023-03-10T06:46:41.815Z,0.20
2023-03-10T06:47:41.777Z,0.20
2023-03-10T06:48:41.790Z,1.10
2023-03-10T06:49:41.760Z,0.80
2023-03-10T06:50:41.772Z,0.80
2023-03-10T06:51:41.744Z,0.50
2023-03-10T06:52:41.715Z,0.60
2023-03-10T06:53:41.713Z,0.20
2023-03-10T06:54:41.734Z,0.50
2023-03-10T06:55:41.695Z,0.80
2023-03-10T06:56:41.685Z,0.70
2023-03-10T06:57:41.705Z,0.50
2023-03-10T06:58:41.663Z,0.40
2023-03-10T06:59:41.678Z,0.30
2023-03-10T07:00:41.635Z,1.30
2023-03-10T07:01:41.635Z,1.20
2023-03-10T07:02:41.628Z,0.30
2023-03-10T07:03:43.704Z,0.30
2023-03-10T07:04:41.646Z,0.80
2023-03-10T07:05:41.582Z,1.10
2023-03-10T07:06:41.570Z,0.60
2023-03-10T07:07:41.583Z,0.90
2023-03-10T07:08:41.557Z,0.90
2023-03-10T07:09:41.533Z,0.70
2023-03-10T07:10:41.550Z,0.50
2023-03-10T07:11:41.539Z,0.20
2023-03-10T07:12:41.503Z,1.10
2023-03-10T07:13:41.489Z,0.30
2023-03-10T07:14:41.475Z,0.90
2023-03-10T07:15:41.461Z,0.40
2023-03-10T07:16:41.500Z,0.90
2023-03-10T07:17:41.492Z,0.80
2023-03-10T07:18:41.473Z,0.40
2023-03-10T07:19:41.423Z,0.20
2023-03-10T07:20:41.410Z,0.40
2023-03-10T07:21:41.402Z,0.30
2023-03-10T07:22:41.403Z,0.60
2023-03-10T07:23:41.398Z,0.30
2023-03-10T07:24:41.378Z,0.60
2023-03-10T07:25:41.367Z,0.20
2023-03-10T07:26:41.349Z,1.00
2023-03-10T07:27:41.352Z,0.40
2023-03-10T07:28:41.349Z,0.50
2023-03-10T07:29:41.348Z,0.80
2023-03-10T07:30:41.410Z,0.20
2023-03-10T07:31:41.327Z,0.30
2023-03-10T07:32:41.390Z,1.20
2023-03-10T07:33:41.285Z,0.20
2023-03-10T07:34:41.269Z,0.20
2023-03-10T07:35:41.280Z,0.50
2023-03-10T07:36:41.241Z,1.00
2023-03-10T07:37:41.262Z,0.30
2023-03-10T07:38:41.224Z,0.20
2023-03-10T07:39:41.233Z,0.70
2023-03-10T07:40:41.263Z,1.20
2023-03-10T07:41:41.206Z,1.00
2023-03-10T07:42:41.182Z,0.20
2023-03-10T07:43:41.184Z,0.30
2023-03-10T07:44:41.151Z,0.70
2023-03-10T07:45:41.146Z,0.40
2023-03-10T07:46:41.234Z,0.90
2023-03-10T07:47:41.172Z,0.40
2023-03-10T07:48:41.112Z,0.40
2023-03-10T07:49:41.098Z,0.30
2023-03-10T07:50:41.088Z,0.40
2023-03-10T07:51:41.090Z,0.40
2023-03-10T07:52:41.086Z,0.40
2023-03-10T07:53:41.052Z,0.60
2023-03-10T07:54:41.050Z,0.40
2023-03-10T07:55:41.127Z,0.90
2023-03-10T07:56:41.038Z,0.50
2023-03-10T07:57:41.046Z,0.40
2023-03-10T07:58:41.048Z,0.30
2023-03-10T07:59:41.574Z,0.10
2023-03-10T08:00:41.000Z,0.40
2023-03-10T08:01:41.350Z,0.70
2023-03-10T08:02:41.035Z,0.60
2023-03-10T08:03:41.018Z,0.70
2023-03-10T08:04:41.077Z,1.10
2023-03-10T08:05:41.468Z,0.90
2023-03-10T08:06:41.523Z,0.40
2023-03-10T08:07:40.902Z,0.90
2023-03-10T08:08:40.891Z,0.70
2023-03-10T08:09:41.441Z,0.50
2023-03-10T08:10:40.883Z,0.60
2023-03-10T08:11:40.900Z,0.70
2023-03-10T08:12:40.840Z,0.90
2023-03-10T08:13:40.888Z,0.80
2023-03-10T08:14:40.818Z,1.70
2023-03-10T08:15:40.930Z,0.50
2023-03-10T08:16:40.798Z,1.10
2023-03-10T08:17:40.786Z,0.90
2023-03-10T08:18:40.812Z,1.00
2023-03-10T08:19:40.758Z,1.00
2023-03-10T08:20:40.800Z,2.00
2023-03-10T08:21:41.077Z,0.40
2023-03-10T08:22:40.749Z,0.40
2023-03-10T08:23:40.722Z,0.50
2023-03-10T08:24:40.726Z,1.00
2023-03-10T08:25:40.715Z,0.60
2023-03-10T08:26:41.081Z,0.80
2023-03-10T08:27:40.695Z,0.80
2023-03-10T08:28:41.080Z,1.30
2023-03-10T08:29:40.699Z,1.50
2023-03-10T08:30:57.087Z,0.60
2023-03-10T08:31:41.655Z,0.90
2023-03-10T08:32:41.365Z,1.20
2023-03-10T08:33:40.995Z,0.30
2023-03-10T08:34:40.602Z,0.80
2023-03-10T08:35:40.660Z,0.80
2023-03-10T08:36:40.578Z,1.50
2023-03-10T08:37:42.986Z,1.30
2023-03-10T08:38:41.063Z,1.10
2023-03-10T08:39:40.581Z,1.60
2023-03-10T08:40:40.579Z,1.40
2023-03-10T08:41:40.546Z,1.80
2023-03-10T08:42:40.550Z,1.70
2023-03-10T08:43:40.547Z,1.20
2023-03-10T08:44:40.504Z,1.10
2023-03-10T08:45:40.488Z,1.10
2023-03-10T08:46:40.570Z,1.90
2023-03-10T08:47:40.462Z,1.10
2023-03-10T08:48:42.780Z,1.70
2023-03-10T08:49:42.465Z,1.60
2023-03-10T08:50:40.498Z,1.20
2023-03-10T08:51:40.486Z,1.90
2023-03-10T08:52:40.408Z,2.20
2023-03-10T08:53:40.432Z,1.80
2023-03-10T08:54:40.388Z,2.40
2023-03-10T08:55:40.384Z,2.40
2023-03-10T08:56:40.387Z,1.60
2023-03-10T08:57:40.352Z,1.40
2023-03-10T08:58:40.375Z,1.60
2023-03-10T08:59:40.334Z,1.00
2023-03-10T09:00:40.329Z,2.40
2023-03-10T09:01:40.407Z,1.70
2023-03-10T09:02:40.449Z,2.00
2023-03-10T09:03:40.390Z,2.90
2023-03-10T09:04:40.291Z,2.70
2023-03-10T09:05:40.293Z,1.20
2023-03-10T09:06:40.266Z,2.50
2023-03-10T09:07:40.336Z,1.70
2023-03-10T09:08:40.241Z,1.80
2023-03-10T09:09:40.245Z,2.90
2023-03-10T09:10:40.233Z,1.90
2023-03-10T09:11:40.236Z,1.50
2023-03-10T09:12:40.199Z,1.20
2023-03-10T09:13:40.186Z,2.80
2023-03-10T09:14:40.183Z,2.60
2023-03-10T09:15:40.201Z,1.70
2023-03-10T09:16:40.417Z,1.40
2023-03-10T09:17:40.936Z,1.80
2023-03-10T09:18:40.130Z,2.90
2023-03-10T09:19:40.117Z,2.80
2023-03-10T09:20:40.105Z,2.50
2023-03-10T09:21:40.133Z,2.70
2023-03-10T09:22:40.097Z,3.90
2023-03-10T09:23:40.082Z,1.90
2023-03-10T09:24:40.083Z,3.10
2023-03-10T09:25:40.059Z,2.50
2023-03-10T09:26:41.325Z,1.50
2023-03-10T09:27:40.073Z,2.60
2023-03-10T09:28:40.021Z,3.40
2023-03-10T09:29:43.291Z,3.20
2023-03-10T09:30:40.004Z,1.90
2023-03-10T09:31:40.030Z,2.70
2023-03-10T09:32:40.074Z,2.30
2023-03-10T09:33:39.985Z,2.00
2023-03-10T09:34:39.968Z,1.40
2023-03-10T09:35:41.905Z,2.00
2023-03-10T09:36:40.941Z,1.80
2023-03-10T09:37:39.920Z,2.20
2023-03-10T09:38:39.906Z,2.50
2023-03-10T09:39:39.936Z,2.90
2023-03-10T09:40:39.887Z,1.90
2023-03-10T09:41:39.889Z,2.10
2023-03-10T09:42:39.861Z,2.70
2023-03-10T09:43:39.877Z,2.60
2023-03-10T09:44:39.846Z,1.90
2023-03-10T09:45:39.962Z,3.00
2023-03-10T09:46:39.826Z,2.70
2023-03-10T09:47:39.810Z,2.20
2023-03-10T09:48:39.820Z,3.10
2023-03-10T09:49:39.829Z,1.70
2023-03-10T09:50:39.783Z,2.30
2023-03-10T09:51:39.756Z,1.60
2023-03-10T09:52:39.758Z,2.50
2023-03-10T09:53:39.761Z,3.40
2023-03-10T09:54:42.009Z,2.40
2023-03-10T09:55:47.105Z,1.20
2023-03-10T09:56:40.711Z,1.50
2023-03-10T09:57:39.699Z,2.30
2023-03-10T09:58:39.711Z,2.00
2023-03-10T09:59:39.667Z,1.20
2023-03-10T10:00:39.657Z,2.10
2023-03-10T10:01:39.655Z,2.00
2023-03-10T10:02:39.637Z,2.20
2023-03-10T10:03:52.216Z,2.30
2023-03-10T10:04:40.700Z,2.20
2023-03-10T10:05:39.629Z,3.60
2023-03-10T10:06:39.596Z,2.30
2023-03-10T10:07:39.629Z,3.60
2023-03-10T10:08:39.577Z,3.20
2023-03-10T10:09:39.604Z,3.10
2023-03-10T10:10:39.555Z,2.20
2023-03-10T10:11:39.542Z,0.90
2023-03-10T10:12:39.529Z,2.20
2023-03-10T10:13:42.341Z,1.50
2023-03-10T10:14:42.695Z,2.00
2023-03-10T10:15:40.528Z,2.20
2023-03-10T10:16:39.534Z,1.10
2023-03-10T10:17:50.885Z,1.90
2023-03-10T10:18:40.506Z,2.00
2023-03-10T10:19:39.500Z,2.60
2023-03-10T10:20:39.462Z,1.60
2023-03-10T10:21:42.781Z,1.50
2023-03-10T10:22:39.430Z,2.80
2023-03-10T10:23:39.436Z,1.80
2023-03-10T10:24:39.425Z,1.40
2023-03-10T10:25:41.062Z,1.60
2023-03-10T10:26:39.385Z,2.10
2023-03-10T10:27:39.368Z,1.10
2023-03-10T10:28:39.367Z,2.40
2023-03-10T10:29:39.351Z,2.30
2023-03-10T10:30:39.395Z,1.40
2023-03-10T10:31:39.347Z,2.20
2023-03-10T10:32:39.336Z,1.50
2023-03-10T10:33:39.301Z,0.80
2023-03-10T10:34:39.301Z,2.30
2023-03-10T10:35:39.364Z,2.70
2023-03-10T10:36:39.262Z,1.40
2023-03-10T10:37:41.444Z,1.50
2023-03-10T10:38:39.242Z,2.00
2023-03-10T10:39:39.242Z,2.30
2023-03-10T10:40:39.217Z,2.60
2023-03-10T10:41:39.240Z,2.90
2023-03-10T10:42:39.204Z,0.80
2023-03-10T10:43:39.192Z,1.80
2023-03-10T10:44:39.183Z,1.20
2023-03-10T10:45:39.217Z,2.40
2023-03-10T10:46:39.171Z,2.00
2023-03-10T10:47:39.155Z,3.10
2023-03-10T10:48:39.153Z,1.00
2023-03-10T10:49:39.124Z,2.20
2023-03-10T10:50:39.120Z,1.10
2023-03-10T10:51:39.110Z,1.40
2023-03-10T10:52:39.116Z,1.80
2023-03-10T10:53:39.103Z,1.50
2023-03-10T10:54:39.087Z,1.80
2023-03-10T10:55:39.059Z,2.70
2023-03-10T10:56:39.046Z,2.60
2023-03-10T10:57:39.047Z,2.00
2023-03-10T10:58:39.053Z,2.50
2023-03-10T10:59:39.023Z,2.40
2023-03-10T11:00:39.011Z,1.90
2023-03-10T11:01:39.013Z,3.00
2023-03-10T11:02:39.114Z,1.60
2023-03-10T11:03:39.039Z,1.60
2023-03-10T11:04:38.965Z,3.50
2023-03-10T11:05:38.950Z,1.70
2023-03-10T11:06:38.944Z,1.60
2023-03-10T11:07:38.952Z,1.00
2023-03-10T11:08:38.918Z,1.90
2023-03-10T11:09:38.934Z,0.90
2023-03-10T11:10:38.903Z,2.00
2023-03-10T11:11:38.894Z,1.00
2023-03-10T11:12:38.920Z,2.20
2023-03-10T11:13:38.857Z,1.20
2023-03-10T11:14:38.876Z,3.30
2023-03-10T11:15:38.914Z,2.40
2023-03-10T11:16:38.842Z,2.50
2023-03-10T11:17:38.826Z,2.20
2023-03-10T11:18:38.837Z,1.40
2023-03-10T11:19:38.805Z,2.00
2023-03-10T11:20:38.789Z,2.10
2023-03-10T11:21:38.792Z,1.90
2023-03-10T11:22:38.762Z,1.60
2023-03-10T11:23:38.757Z,1.40
2023-03-10T11:24:38.752Z,1.50
2023-03-10T11:25:38.739Z,1.60
2023-03-10T11:26:38.717Z,3.00
2023-03-10T11:27:38.717Z,1.80
2023-03-10T11:28:38.736Z,0.80
2023-03-10T11:29:38.755Z,1.60
2023-03-10T11:30:38.683Z,1.60
2023-03-10T11:31:38.664Z,0.70
2023-03-10T11:32:38.712Z,2.40
2023-03-10T11:33:38.661Z,1.60
2023-03-10T11:34:38.659Z,1.20
2023-03-10T11:35:38.636Z,1.30
2023-03-10T11:36:53.412Z,0.80
2023-03-10T11:37:39.616Z,1.70
2023-03-10T11:38:38.636Z,0.40
2023-03-10T11:39:38.587Z,1.20
2023-03-10T11:40:38.567Z,0.80
2023-03-10T11:41:38.558Z,0.50
2023-03-10T11:42:38.551Z,1.40
2023-03-10T11:43:38.548Z,0.70
2023-03-10T11:44:38.533Z,1.20
2023-03-10T11:45:38.539Z,1.90
2023-03-10T11:46:38.557Z,0.60
2023-03-10T11:47:41.503Z,1.30
2023-03-10T11:48:38.501Z,1.00
2023-03-10T11:49:38.483Z,0.90
2023-03-10T11:50:38.473Z,1.00
2023-03-10T11:51:38.457Z,1.20
2023-03-10T11:52:38.452Z,2.20
2023-03-10T11:53:38.430Z,0.50
2023-03-10T11:54:38.431Z,1.10
2023-03-10T11:55:38.453Z,1.00
2023-03-10T11:56:38.438Z,1.40
2023-03-10T11:57:38.400Z,1.30
2023-03-10T11:58:38.367Z,0.90
2023-03-10T11:59:38.364Z,1.40
2023-03-10T12:00:38.497Z,1.20
2023-03-10T12:01:38.399Z,1.90
2023-03-10T12:02:38.363Z,0.60
2023-03-10T12:03:38.336Z,0.80
2023-03-10T12:04:38.307Z,0.70
2023-03-10T12:05:38.351Z,0.90
2023-03-10T12:06:38.308Z,2.00
2023-03-10T12:07:38.269Z,1.30
2023-03-10T12:08:38.315Z,0.70
2023-03-10T12:09:38.324Z,1.60
2023-03-10T12:10:38.235Z,1.90
2023-03-10T12:11:38.236Z,0.70
2023-03-10T12:12:38.217Z,0.70
2023-03-10T12:13:38.279Z,1.20
2023-03-10T12:14:38.208Z,1.30
2023-03-10T12:15:38.201Z,0.80
2023-03-10T12:16:38.304Z,1.20
2023-03-10T12:17:38.358Z,1.10
2023-03-10T12:18:38.213Z,1.10
2023-03-10T12:19:38.157Z,1.50
2023-03-10T12:20:38.136Z,1.00
2023-03-10T12:21:38.166Z,0.80
2023-03-10T12:22:38.105Z,1.00
2023-03-10T12:23:38.102Z,1.60
2023-03-10T12:24:38.093Z,1.10
2023-03-10T12:25:38.083Z,1.40
2023-03-10T12:26:38.088Z,0.90
2023-03-10T12:27:38.258Z,1.80
2023-03-10T12:28:41.093Z,1.60
2023-03-10T12:29:38.064Z,0.90
2023-03-10T12:30:38.025Z,1.80
2023-03-10T12:31:38.092Z,1.60
2023-03-10T12:32:38.024Z,2.20
2023-03-10T12:33:38.031Z,1.80
2023-03-10T12:34:37.975Z,0.90
2023-03-10T12:35:38.064Z,2.10
2023-03-10T12:36:38.002Z,0.80
2023-03-10T12:37:37.951Z,0.90
2023-03-10T12:38:37.944Z,1.00
2023-03-10T12:39:38.066Z,0.80
2023-03-10T12:40:37.927Z,1.90
2023-03-10T12:41:37.912Z,1.00
2023-03-10T12:42:37.904Z,0.80
2023-03-10T12:43:37.884Z,0.60
2023-03-10T12:44:37.882Z,1.20
2023-03-10T12:45:37.848Z,2.10
2023-03-10T12:46:37.882Z,1.60
2023-03-10T12:47:37.879Z,1.60
2023-03-10T12:48:37.860Z,1.30
2023-03-10T12:49:37.831Z,1.10
2023-03-10T12:50:37.831Z,1.30
2023-03-10T12:51:37.828Z,1.80
2023-03-10T12:52:37.817Z,1.70
2023-03-10T12:53:37.764Z,1.80
2023-03-10T12:54:37.758Z,3.40
2023-03-10T12:55:37.747Z,1.40
2023-03-10T12:56:37.887Z,2.00
2023-03-10T12:57:37.765Z,1.70
2023-03-10T12:58:37.727Z,1.50
2023-03-10T12:59:37.698Z,1.40
2023-03-10T13:00:37.734Z,2.20
2023-03-10T13:01:40.620Z,2.60
2023-03-10T13:02:38.688Z,1.00
2023-03-10T13:03:37.706Z,2.40
2023-03-10T13:04:37.652Z,1.50
2023-03-10T13:05:37.681Z,1.40
2023-03-10T13:06:37.673Z,2.00
2023-03-10T13:07:37.641Z,1.50
2023-03-10T13:08:37.663Z,1.80
2023-03-10T13:09:37.609Z,1.50
2023-03-10T13:10:37.854Z,1.10
2023-03-10T13:11:37.636Z,1.20
2023-03-10T13:12:37.580Z,0.90
2023-03-10T13:13:37.552Z,1.70
2023-03-10T13:14:37.557Z,2.00
2023-03-10T13:15:37.554Z,0.90
2023-03-10T13:16:37.563Z,0.90
2023-03-10T13:17:37.575Z,0.70